Nautic — A8HQ3 — position and weather

sailwx.info

Track history (hours):
 
Tides and Currents Weather Stations Pressure Air Temp Water Temp Dewpoint Dewpoint Depression Visibility Wind Speed Wind Dir Waves Ship Positions

Nautic

Last reported at 2017-Sep-21 11:24 UTC. Time now 2017-Sep-22 10:17 UTC.
Position N 01°15' E 104°03'.

Length 274 m; draft 15.5 m.

Type: Tanker. MMSI: 636012754.

Date/timePositionNaut miles runAvg speedWind from/ knotsBaromVisibWave heightAir tempDewpointWater temp
2017-Sep-21 11:24N 01°15' E 104°03'1 2.4
2017-Sep-21 11:00N 01°15' E 104°02'1 2.7
2017-Sep-21 10:29N 01°15' E 104°01'1 2.7
2017-Sep-21 10:00N 01°15' E 103°60'1 2.6
2017-Sep-21 09:30N 01°14' E 103°58'10 1.3
2017-Sep-21 01:33N 01°16' E 104°09'3 9.2
2017-Sep-21 01:13N 01°15' E 104°06'2 9.1
2017-Sep-21 00:59N 01°15' E 104°04'4 9.4
2017-Sep-21 00:30N 01°14' E 103°59'510.0
2017-Sep-21 00:00N 01°13' E 103°54'5 9.8
2017-Sep-20 23:30N 01°11' E 103°50'510.7
2017-Sep-20 23:00N 01°08' E 103°45'510.7
2017-Sep-20 22:30N 01°05' E 103°41'4 7.5
2017-Sep-20 22:00N 01°04' E 103°38'2 3.6
2017-Sep-20 21:30N 01°06' E 103°37'0 0.6
2017-Sep-20 20:59N 01°06' E 103°37'0 0.1
2017-Sep-20 17:35N 01°06' E 103°37'0 0.1
2017-Sep-20 14:41N 01°06' E 103°37'0 0.3
2017-Sep-20 13:59N 01°06' E 103°37'0 0.0
2017-Sep-20 13:26N 01°06' E 103°37'0 0.0
2017-Sep-20 12:59N 01°06' E 103°37'0 0.0
2017-Sep-20 12:26N 01°06' E 103°37'0 0.0
2017-Sep-20 11:50N 01°06' E 103°37'0 0.0
2017-Sep-20 11:23N 01°06' E 103°37'0 0.0
2017-Sep-20 10:53N 01°06' E 103°37'0 0.0
2017-Sep-20 10:26N 01°06' E 103°37'0 0.0
2017-Sep-20 09:56N 01°06' E 103°37'0 0.0
2017-Sep-20 09:26N 01°06' E 103°37'0 0.1
2017-Sep-20 08:56N 01°06' E 103°37'0 0.2
2017-Sep-20 07:41N 01°06' E 103°37'0 0.1
2017-Sep-20 07:11N 01°06' E 103°37'0 0.0
2017-Sep-20 06:59N 01°06' E 103°37'0 0.0
2017-Sep-20 06:29N 01°06' E 103°37'0 0.0
2017-Sep-20 05:59N 01°06' E 103°37'0 0.0
2017-Sep-20 05:26N 01°06' E 103°37'0 0.0
2017-Sep-20 04:53N 01°06' E 103°37'0 0.0
2017-Sep-20 04:26N 01°06' E 103°37'0 0.0
2017-Sep-20 03:59N 01°06' E 103°37'0 0.0
2017-Sep-20 03:26N 01°06' E 103°37'0 0.0
2017-Sep-20 02:59N 01°06' E 103°37'0 0.1
2017-Sep-20 02:26N 01°06' E 103°37'0 0.2
2017-Sep-20 00:41N 01°06' E 103°37'0 0.2
2017-Sep-20 00:26N 01°06' E 103°37'0 0.0
2017-Sep-19 23:53N 01°06' E 103°37'0 0.0
2017-Sep-19 23:29N 01°06' E 103°37'0 0.0
2017-Sep-19 22:59N 01°06' E 103°37'0 0.0
2017-Sep-19 22:23N 01°06' E 103°37'0 0.0
2017-Sep-19 21:59N 01°06' E 103°37'0 0.0
2017-Sep-19 21:29N 01°06' E 103°37'0 0.1
2017-Sep-19 20:59N 01°06' E 103°37'0 0.0
2017-Sep-19 20:26N 01°06' E 103°37'0 0.1
2017-Sep-19 17:20N 01°06' E 103°37'0 0.1
2017-Sep-19 14:53N 01°06' E 103°37'0 0.2
2017-Sep-19 14:17N 01°06' E 103°37'0 0.0
2017-Sep-19 13:50N 01°06' E 103°37'0 0.0
2017-Sep-19 13:29N 01°06' E 103°37'0 0.0
2017-Sep-19 12:59N 01°06' E 103°37'0 0.0
2017-Sep-19 12:29N 01°06' E 103°37'0 0.0
2017-Sep-19 11:56N 01°06' E 103°37'0 0.1
2017-Sep-19 11:29N 01°06' E 103°37'0 0.1
2017-Sep-19 10:59N 01°06' E 103°37'0 0.1
2017-Sep-19 10:17N 01°06' E 103°37'0 0.0
2017-Sep-19 09:32N 01°06' E 103°37'0 0.0
2017-Sep-19 09:26N 01°06' E 103°37'0 0.1
2017-Sep-19 08:56N 01°06' E 103°37'0 0.3
2017-Sep-19 08:17N 01°06' E 103°37'0 0.4
2017-Sep-19 07:59N 01°06' E 103°37'0 0.0
2017-Sep-19 07:29N 01°06' E 103°37'0 0.1
2017-Sep-19 06:44N 01°06' E 103°37'0 0.0
2017-Sep-19 06:26N 01°06' E 103°37'0 0.0
2017-Sep-19 05:59N 01°06' E 103°37'0 0.0
2017-Sep-19 04:56N 01°06' E 103°37'0 0.0
2017-Sep-19 04:14N 01°06' E 103°37'0 0.0
2017-Sep-19 03:59N 01°06' E 103°37'0 0.0
2017-Sep-19 03:23N 01°06' E 103°37'0 0.0
2017-Sep-19 02:56N 01°06' E 103°37'0 0.0
2017-Sep-19 02:23N 01°06' E 103°37'0 0.1
2017-Sep-19 01:59N 01°06' E 103°37'0 0.1
2017-Sep-19 01:14N 01°06' E 103°37'0 0.2
2017-Sep-19 00:35N 01°06' E 103°37'0 0.2
2017-Sep-19 00:23N 01°06' E 103°37'0 0.2
2017-Sep-18 23:59N 01°06' E 103°37'0 0.1
2017-Sep-18 23:29N 01°06' E 103°37'0 0.0
2017-Sep-18 22:59N 01°06' E 103°37'0 0.0
2017-Sep-18 22:29N 01°06' E 103°37'0 0.0
2017-Sep-18 21:59N 01°06' E 103°37'0 0.0
2017-Sep-18 21:29N 01°06' E 103°37'0 0.0
2017-Sep-18 20:53N 01°06' E 103°37'0 0.0
2017-Sep-18 20:23N 01°06' E 103°37'0 0.1
2017-Sep-18 19:50N 01°06' E 103°37'0 0.0
2017-Sep-18 17:59N 01°06' E 103°37'0 0.0
2017-Sep-18 15:35N 01°06' E 103°37'0 0.1
2017-Sep-18 15:26N 01°06' E 103°37'0 0.2
2017-Sep-18 14:59N 01°06' E 103°37'0 0.2
2017-Sep-18 14:23N 01°06' E 103°37'0 0.1
2017-Sep-18 13:53N 01°06' E 103°37'0 0.0
2017-Sep-18 12:59N 01°06' E 103°37'0 0.1
2017-Sep-18 12:26N 01°06' E 103°37'0 0.1
2017-Sep-18 11:26N 01°06' E 103°37'0 0.0
2017-Sep-18 10:59N 01°06' E 103°37'0 0.0
2017-Sep-18 10:29N 01°06' E 103°37'0 0.0
2017-Sep-18 09:53N 01°06' E 103°37'0 0.0
2017-Sep-18 09:20N 01°06' E 103°37'0 0.2
2017-Sep-18 08:59N 01°06' E 103°37'0 0.0
2017-Sep-18 08:29N 01°06' E 103°37'0 0.0
2017-Sep-18 07:56N 01°06' E 103°37'0 0.1
2017-Sep-18 07:29N 01°06' E 103°37'0 0.1
2017-Sep-18 06:56N 01°06' E 103°37'0 0.2
2017-Sep-18 06:20N 01°06' E 103°37'0 0.2
2017-Sep-18 05:59N 01°06' E 103°37'0 0.1
2017-Sep-18 05:29N 01°06' E 103°37'0 0.1
2017-Sep-18 04:59N 01°06' E 103°37'0 0.1
2017-Sep-18 04:29N 01°06' E 103°37'0 0.0
2017-Sep-18 03:59N 01°06' E 103°37'0 0.0
2017-Sep-18 03:29N 01°06' E 103°37'0 0.0
2017-Sep-18 02:56N 01°06' E 103°37'0 0.0
2017-Sep-18 02:29N 01°06' E 103°37'0 0.0
2017-Sep-18 01:59N 01°06' E 103°37'0 0.1
2017-Sep-18 01:23N 01°06' E 103°37'0 0.0
2017-Sep-18 00:59N 01°06' E 103°37'0 0.1
2017-Sep-17 23:32N 01°06' E 103°37'0 0.1
2017-Sep-17 23:29N 01°06' E 103°37'0 0.1
2017-Sep-17 22:59N 01°06' E 103°37'0 0.0
2017-Sep-17 22:29N 01°06' E 103°37'0 0.1
2017-Sep-17 21:50N 01°06' E 103°37'0 0.0
2017-Sep-17 21:29N 01°06' E 103°37'0 0.1
2017-Sep-17 20:59N 01°06' E 103°37'0 0.1
2017-Sep-17 20:26N 01°06' E 103°37'0 0.0
2017-Sep-17 19:53N 01°06' E 103°37'0 0.1
2017-Sep-17 19:23N 01°06' E 103°37'0 0.0
2017-Sep-17 18:59N 01°06' E 103°37'0 0.0
2017-Sep-17 18:29N 01°06' E 103°37'0 0.0
2017-Sep-17 17:47N 01°06' E 103°37'0 0.0
2017-Sep-17 17:29N 01°06' E 103°37'0 0.1
2017-Sep-17 16:53N 01°06' E 103°37'0 0.0
2017-Sep-17 14:44N 01°06' E 103°37'0 0.0
2017-Sep-17 14:17N 01°06' E 103°37'0 0.1
2017-Sep-17 13:44N 01°06' E 103°37'0 0.0
2017-Sep-17 13:29N 01°06' E 103°37'0 0.1
2017-Sep-17 12:56N 01°06' E 103°37'0 0.0
2017-Sep-17 12:26N 01°06' E 103°37'0 0.1
2017-Sep-17 11:47N 01°06' E 103°37'0 0.0
2017-Sep-17 11:14N 01°06' E 103°37'0 0.0
2017-Sep-17 10:53N 01°06' E 103°37'0 0.0
2017-Sep-17 10:05N 01°06' E 103°37'0 0.0
2017-Sep-17 08:59N 01°06' E 103°37'0 0.0
2017-Sep-17 08:23N 01°06' E 103°37'0 0.0
2017-Sep-17 07:02N 01°06' E 103°37'0 0.0
2017-Sep-17 06:59N 01°06' E 103°37'0 0.1
2017-Sep-17 06:23N 01°06' E 103°37'0 0.1
2017-Sep-17 05:53N 01°06' E 103°37'0 0.1
2017-Sep-17 05:29N 01°06' E 103°37'0 0.1
2017-Sep-17 04:53N 01°06' E 103°37'0 0.1
2017-Sep-17 04:26N 01°06' E 103°37'0 0.0
2017-Sep-17 03:56N 01°06' E 103°37'0 0.0
2017-Sep-17 03:29N 01°06' E 103°37'0 0.0
2017-Sep-17 02:59N 01°06' E 103°37'0 0.0
2017-Sep-17 02:26N 01°06' E 103°37'0 0.0
2017-Sep-17 01:59N 01°06' E 103°37'0 0.0
2017-Sep-17 01:23N 01°06' E 103°37'0 0.0
2017-Sep-17 00:56N 01°06' E 103°37'0 0.0
2017-Sep-17 00:26N 01°06' E 103°37'0 0.1
2017-Sep-16 23:59N 01°06' E 103°37'0 0.2
2017-Sep-16 22:47N 01°06' E 103°37'0 0.2
2017-Sep-16 22:23N 01°06' E 103°37'0 0.0
2017-Sep-16 21:47N 01°06' E 103°37'0 0.0
2017-Sep-16 21:26N 01°06' E 103°37'0 0.0
2017-Sep-16 20:59N 01°06' E 103°37'0 0.0
2017-Sep-16 20:29N 01°06' E 103°37'0 0.0
2017-Sep-16 19:59N 01°06' E 103°37'0 0.0
2017-Sep-16 19:26N 01°06' E 103°37'0 0.0
2017-Sep-16 18:56N 01°06' E 103°37'0 0.0
2017-Sep-16 18:29N 01°06' E 103°37'0 0.0
2017-Sep-16 17:59N 01°06' E 103°37'0 0.0
2017-Sep-16 17:29N 01°06' E 103°37'0 0.0
2017-Sep-16 16:53N 01°06' E 103°37'0 0.0
2017-Sep-16 16:20N 01°06' E 103°37'0 0.1
2017-Sep-16 15:53N 01°06' E 103°37'0 0.2
2017-Sep-16 15:29N 01°06' E 103°37'0 0.0
2017-Sep-16 14:02N 01°06' E 103°37'0 0.3
2017-Sep-16 13:50N 01°06' E 103°37'0 0.0
2017-Sep-16 13:14N 01°06' E 103°37'0 0.2
2017-Sep-16 12:50N 01°06' E 103°37'0 0.2
2017-Sep-16 12:29N 01°06' E 103°37'0 0.0
2017-Sep-16 11:44N 01°06' E 103°37'0 0.0
2017-Sep-16 11:29N 01°06' E 103°37'0 0.0
2017-Sep-16 10:56N 01°06' E 103°37'0 0.0
2017-Sep-16 10:14N 01°06' E 103°37'0 0.1
2017-Sep-16 09:50N 01°06' E 103°37'0 0.0
2017-Sep-16 09:26N 01°06' E 103°37'0 0.0
2017-Sep-16 08:59N 01°06' E 103°37'0 0.1
2017-Sep-16 08:26N 01°06' E 103°37'0 0.0
2017-Sep-16 07:59N 01°06' E 103°37'0 0.1
2017-Sep-16 06:47N 01°06' E 103°37'0 0.3
2017-Sep-16 06:29N 01°06' E 103°37'0 0.2
2017-Sep-16 05:59N 01°06' E 103°37'0 0.1
2017-Sep-16 05:29N 01°06' E 103°37'0 0.1
2017-Sep-16 04:56N 01°06' E 103°37'0 0.0
2017-Sep-16 04:29N 01°06' E 103°37'0 0.0
2017-Sep-16 03:53N 01°06' E 103°37'0 0.0
2017-Sep-16 03:29N 01°06' E 103°37'0 0.1
2017-Sep-16 02:47N 01°06' E 103°37'0 0.0
2017-Sep-16 02:26N 01°06' E 103°37'0 0.0
2017-Sep-16 01:59N 01°06' E 103°37'0 0.0
2017-Sep-16 01:29N 01°06' E 103°37'0 0.0
2017-Sep-16 00:59N 01°06' E 103°37'0 0.0
2017-Sep-16 00:20N 01°06' E 103°37'0 0.0
2017-Sep-15 23:59N 01°06' E 103°37'0 0.0
2017-Sep-15 23:26N 01°06' E 103°37'0 0.1
2017-Sep-15 22:38N 01°06' E 103°37'0 0.3
2017-Sep-15 22:23N 01°06' E 103°37'0 0.1
2017-Sep-15 21:50N 01°06' E 103°37'0 0.0
2017-Sep-15 20:35N 01°06' E 103°37'0 0.0
2017-Sep-15 20:26N 01°06' E 103°37'0 0.0
2017-Sep-15 10:08N 01°06' E 103°37'0 0.1
2017-Sep-15 09:38N 01°06' E 103°37'0 0.4
2017-Sep-15 09:29N 01°06' E 103°37'0 0.0
2017-Sep-15 08:59N 01°06' E 103°37'0 0.1
2017-Sep-15 08:17N 01°06' E 103°37'0 0.0
2017-Sep-15 07:59N 01°06' E 103°37'0 0.1
2017-Sep-15 07:29N 01°06' E 103°37'0 0.0
2017-Sep-15 06:56N 01°06' E 103°37'0 0.0
2017-Sep-15 06:29N 01°06' E 103°37'0 0.1
2017-Sep-15 05:14N 01°06' E 103°37'0 0.1
2017-Sep-15 04:56N 01°06' E 103°37'0 0.2
2017-Sep-15 04:29N 01°06' E 103°37'0 0.3
2017-Sep-15 03:56N 01°06' E 103°37'0 0.1
2017-Sep-15 03:26N 01°06' E 103°37'0 0.1
2017-Sep-15 02:59N 01°06' E 103°37'0 0.1
2017-Sep-15 02:29N 01°06' E 103°37'0 0.0
2017-Sep-15 01:56N 01°06' E 103°37'0 0.0
2017-Sep-15 01:29N 01°06' E 103°37'0 0.0
2017-Sep-15 00:56N 01°06' E 103°37'0 0.0
2017-Sep-14 22:59N 01°06' E 103°37'0 0.0
2017-Sep-14 20:53N 01°06' E 103°37'0 0.0
2017-Sep-14 15:59N 01°06' E 103°37'0 0.0
2017-Sep-14 05:35N 01°06' E 103°37'0 0.0
2017-Sep-13 22:41N 01°06' E 103°37'0 0.0
2017-Sep-13 16:53N 01°06' E 103°37'0 0.1
2017-Sep-13 15:59N 01°06' E 103°37'0 0.0
2017-Sep-13 15:14N 01°06' E 103°37'0 0.0
2017-Sep-13 14:53N 01°06' E 103°37'0 0.0
2017-Sep-13 14:17N 01°06' E 103°37'0 0.0
2017-Sep-13 13:56N 01°06' E 103°37'0 0.0
2017-Sep-13 08:23N 01°06' E 103°37'0 0.0
2017-Sep-13 07:59N 01°06' E 103°37'0 0.2
2017-Sep-13 07:30N 01°06' E 103°37'0 0.1
2017-Sep-13 06:59N 01°06' E 103°37'0 0.1
2017-Sep-13 06:30N 01°06' E 103°37'0 0.0
2017-Sep-13 05:59N 01°06' E 103°37'0 0.0
2017-Sep-13 05:30N 01°06' E 103°37'0 0.1
2017-Sep-13 05:01N 01°06' E 103°37'0 0.0
2017-Sep-13 04:30N 01°06' E 103°37'0 0.0
2017-Sep-13 03:59N 01°06' E 103°37'0 0.0
2017-Sep-13 03:25N 01°06' E 103°37'0 0.0
2017-Sep-13 02:59N 01°06' E 103°37'0 0.1
2017-Sep-13 02:28N 01°06' E 103°37'0 0.1
2017-Sep-13 01:58N 01°06' E 103°37'0 0.3
2017-Sep-13 01:30N 01°06' E 103°37'0 0.2
2017-Sep-13 00:58N 01°06' E 103°37'0 0.0
2017-Sep-13 00:29N 01°06' E 103°37'0 0.0
2017-Sep-12 23:53N 01°06' E 103°37'0 0.1
2017-Sep-12 23:19N 01°06' E 103°37'0 0.4
2017-Sep-12 22:59N 01°06' E 103°37'0 0.3
2017-Sep-12 22:30N 01°06' E 103°37'0 0.1
2017-Sep-12 22:01N 01°06' E 103°37'0 0.1
2017-Sep-12 21:30N 01°06' E 103°37'0 0.0
2017-Sep-12 20:59N 01°06' E 103°37'0 0.0
2017-Sep-12 20:30N 01°06' E 103°37'0 0.0
2017-Sep-12 19:59N 01°06' E 103°37'0 0.1
2017-Sep-12 19:30N 01°06' E 103°37'0 0.3
2017-Sep-12 18:59N 01°06' E 103°37'0 0.3
2017-Sep-12 18:30N 01°06' E 103°37'0 0.0
2017-Sep-12 17:59N 01°06' E 103°37'0 0.1
2017-Sep-12 17:30N 01°06' E 103°37'0 0.0
2017-Sep-12 17:00N 01°06' E 103°37'0 0.1
2017-Sep-12 16:30N 01°06' E 103°37'0 0.0
2017-Sep-12 15:59N 01°06' E 103°37'0 0.0
2017-Sep-12 15:30N 01°06' E 103°37'0 0.0
2017-Sep-12 14:59N 01°06' E 103°37'0 0.0
2017-Sep-12 14:30N 01°06' E 103°37'0 0.0
2017-Sep-12 13:59N 01°06' E 103°37'0 0.0
2017-Sep-12 13:30N 01°06' E 103°37'0 0.1
2017-Sep-12 12:59N 01°06' E 103°37'0 0.0
2017-Sep-12 12:30N 01°06' E 103°37'0 0.0
2017-Sep-12 12:01N 01°06' E 103°37'0 0.1
2017-Sep-12 11:30N 01°06' E 103°37'0 0.0
2017-Sep-12 10:59N 01°06' E 103°37'0 0.1
2017-Sep-12 10:30N 01°06' E 103°37'0 0.1
2017-Sep-12 09:59N 01°06' E 103°37'0 0.1
2017-Sep-12 09:30N 01°06' E 103°37'0 0.0
2017-Sep-12 09:00N 01°06' E 103°37'0 0.1
2017-Sep-12 08:30N 01°06' E 103°37'0 0.0
2017-Sep-12 07:53N 01°06' E 103°37'0 0.0
2017-Sep-12 07:30N 01°06' E 103°37'0 0.0
2017-Sep-12 07:01N 01°06' E 103°37'0 0.1
2017-Sep-12 06:30N 01°06' E 103°37'0 0.2
2017-Sep-12 05:58N 01°06' E 103°37'0 0.3
2017-Sep-12 05:30N 01°06' E 103°37'0 0.1
2017-Sep-12 04:59N 01°06' E 103°37'0 0.0
2017-Sep-12 04:30N 01°06' E 103°37'0 0.0
2017-Sep-12 03:59N 01°06' E 103°37'0 0.0
2017-Sep-12 03:30N 01°06' E 103°37'0 0.0
2017-Sep-12 03:00N 01°06' E 103°37'0 0.1
2017-Sep-12 02:30N 01°06' E 103°37'0 0.0
2017-Sep-12 02:01N 01°06' E 103°37'0 0.0
2017-Sep-12 01:30N 01°06' E 103°37'0 0.0
2017-Sep-12 00:59N 01°06' E 103°37'0 0.0
2017-Sep-12 00:30N 01°06' E 103°37'0 0.0
2017-Sep-11 23:59N 01°06' E 103°37'0 0.0
2017-Sep-11 23:30N 01°06' E 103°37'0 0.1
2017-Sep-11 23:00N 01°06' E 103°37'0 0.4
2017-Sep-11 22:30N 01°06' E 103°37'0 0.2
2017-Sep-11 21:59N 01°06' E 103°37'0 0.1
2017-Sep-11 21:30N 01°06' E 103°37'0 0.1
2017-Sep-11 20:59N 01°06' E 103°37'0 0.1
2017-Sep-11 20:30N 01°06' E 103°37'0 0.1
2017-Sep-11 20:01N 01°06' E 103°37'0 0.0
2017-Sep-11 19:30N 01°06' E 103°37'0 0.0
2017-Sep-11 18:59N 01°06' E 103°37'0 0.0
2017-Sep-11 18:30N 01°06' E 103°37'0 0.1
2017-Sep-11 17:59N 01°06' E 103°37'0 0.3
2017-Sep-11 17:30N 01°06' E 103°37'0 0.3
2017-Sep-11 16:59N 01°06' E 103°37'0 0.1
2017-Sep-11 16:30N 01°06' E 103°37'0 0.0
2017-Sep-11 15:59N 01°06' E 103°37'0 0.0
2017-Sep-11 15:30N 01°06' E 103°37'0 0.1
2017-Sep-11 14:59N 01°06' E 103°37'0 0.0
2017-Sep-11 14:30N 01°06' E 103°37'0 0.0
2017-Sep-11 13:59N 01°06' E 103°37'0 0.1
2017-Sep-11 13:30N 01°06' E 103°37'0 0.0
2017-Sep-11 12:59N 01°06' E 103°37'0 0.1
2017-Sep-11 12:30N 01°06' E 103°37'0 0.0
2017-Sep-11 11:59N 01°06' E 103°37'0 0.1
2017-Sep-11 11:30N 01°06' E 103°37'  
Track history (hours):
 
Tides and Currents Weather Stations Pressure Air Temp Water Temp Dewpoint Dewpoint Depression Visibility Wind Speed Wind Dir Waves Ship Positions

Nautic

Last reported at 2017-Sep-21 11:24 UTC. Time now 2017-Sep-22 10:17 UTC.
Position N 01°15' E 104°03'.

Length 274 m; draft 15.5 m.

Type: Tanker. MMSI: 636012754.

Date/timePositionNaut miles runAvg speedWind from/ knotsBaromVisibWave heightAir tempDewpointWater temp
2017-Sep-21 11:24N 01°15' E 104°03'1 2.4
2017-Sep-21 11:00N 01°15' E 104°02'1 2.7
2017-Sep-21 10:29N 01°15' E 104°01'1 2.7
2017-Sep-21 10:00N 01°15' E 103°60'1 2.6
2017-Sep-21 09:30N 01°14' E 103°58'10 1.3
2017-Sep-21 01:33N 01°16' E 104°09'3 9.2
2017-Sep-21 01:13N 01°15' E 104°06'2 9.1
2017-Sep-21 00:59N 01°15' E 104°04'4 9.4
2017-Sep-21 00:30N 01°14' E 103°59'510.0
2017-Sep-21 00:00N 01°13' E 103°54'5 9.8
2017-Sep-20 23:30N 01°11' E 103°50'510.7
2017-Sep-20 23:00N 01°08' E 103°45'510.7
2017-Sep-20 22:30N 01°05' E 103°41'4 7.5
2017-Sep-20 22:00N 01°04' E 103°38'2 3.6
2017-Sep-20 21:30N 01°06' E 103°37'0 0.6
2017-Sep-20 20:59N 01°06' E 103°37'0 0.1
2017-Sep-20 17:35N 01°06' E 103°37'0 0.1
2017-Sep-20 14:41N 01°06' E 103°37'0 0.3
2017-Sep-20 13:59N 01°06' E 103°37'0 0.0
2017-Sep-20 13:26N 01°06' E 103°37'0 0.0
2017-Sep-20 12:59N 01°06' E 103°37'0 0.0
2017-Sep-20 12:26N 01°06' E 103°37'0 0.0
2017-Sep-20 11:50N 01°06' E 103°37'0 0.0
2017-Sep-20 11:23N 01°06' E 103°37'0 0.0
2017-Sep-20 10:53N 01°06' E 103°37'0 0.0
2017-Sep-20 10:26N 01°06' E 103°37'0 0.0
2017-Sep-20 09:56N 01°06' E 103°37'0 0.0
2017-Sep-20 09:26N 01°06' E 103°37'0 0.1
2017-Sep-20 08:56N 01°06' E 103°37'0 0.2
2017-Sep-20 07:41N 01°06' E 103°37'0 0.1
2017-Sep-20 07:11N 01°06' E 103°37'0 0.0
2017-Sep-20 06:59N 01°06' E 103°37'0 0.0
2017-Sep-20 06:29N 01°06' E 103°37'0 0.0
2017-Sep-20 05:59N 01°06' E 103°37'0 0.0
2017-Sep-20 05:26N 01°06' E 103°37'0 0.0
2017-Sep-20 04:53N 01°06' E 103°37'0 0.0
2017-Sep-20 04:26N 01°06' E 103°37'0 0.0
2017-Sep-20 03:59N 01°06' E 103°37'0 0.0
2017-Sep-20 03:26N 01°06' E 103°37'0 0.0
2017-Sep-20 02:59N 01°06' E 103°37'0 0.1
2017-Sep-20 02:26N 01°06' E 103°37'0 0.2
2017-Sep-20 00:41N 01°06' E 103°37'0 0.2
2017-Sep-20 00:26N 01°06' E 103°37'0 0.0
2017-Sep-19 23:53N 01°06' E 103°37'0 0.0
2017-Sep-19 23:29N 01°06' E 103°37'0 0.0
2017-Sep-19 22:59N 01°06' E 103°37'0 0.0
2017-Sep-19 22:23N 01°06' E 103°37'0 0.0
2017-Sep-19 21:59N 01°06' E 103°37'0 0.0
2017-Sep-19 21:29N 01°06' E 103°37'0 0.1
2017-Sep-19 20:59N 01°06' E 103°37'0 0.0
2017-Sep-19 20:26N 01°06' E 103°37'0 0.1
2017-Sep-19 17:20N 01°06' E 103°37'0 0.1
2017-Sep-19 14:53N 01°06' E 103°37'0 0.2
2017-Sep-19 14:17N 01°06' E 103°37'0 0.0
2017-Sep-19 13:50N 01°06' E 103°37'0 0.0
2017-Sep-19 13:29N 01°06' E 103°37'0 0.0
2017-Sep-19 12:59N 01°06' E 103°37'0 0.0
2017-Sep-19 12:29N 01°06' E 103°37'0 0.0
2017-Sep-19 11:56N 01°06' E 103°37'0 0.1
2017-Sep-19 11:29N 01°06' E 103°37'0 0.1
2017-Sep-19 10:59N 01°06' E 103°37'0 0.1
2017-Sep-19 10:17N 01°06' E 103°37'0 0.0
2017-Sep-19 09:32N 01°06' E 103°37'0 0.0
2017-Sep-19 09:26N 01°06' E 103°37'0 0.1
2017-Sep-19 08:56N 01°06' E 103°37'0 0.3
2017-Sep-19 08:17N 01°06' E 103°37'0 0.4
2017-Sep-19 07:59N 01°06' E 103°37'0 0.0
2017-Sep-19 07:29N 01°06' E 103°37'0 0.1
2017-Sep-19 06:44N 01°06' E 103°37'0 0.0
2017-Sep-19 06:26N 01°06' E 103°37'0 0.0
2017-Sep-19 05:59N 01°06' E 103°37'0 0.0
2017-Sep-19 04:56N 01°06' E 103°37'0 0.0
2017-Sep-19 04:14N 01°06' E 103°37'0 0.0
2017-Sep-19 03:59N 01°06' E 103°37'0 0.0
2017-Sep-19 03:23N 01°06' E 103°37'0 0.0
2017-Sep-19 02:56N 01°06' E 103°37'0 0.0
2017-Sep-19 02:23N 01°06' E 103°37'0 0.1
2017-Sep-19 01:59N 01°06' E 103°37'0 0.1
2017-Sep-19 01:14N 01°06' E 103°37'0 0.2
2017-Sep-19 00:35N 01°06' E 103°37'0 0.2
2017-Sep-19 00:23N 01°06' E 103°37'0 0.2
2017-Sep-18 23:59N 01°06' E 103°37'0 0.1
2017-Sep-18 23:29N 01°06' E 103°37'0 0.0
2017-Sep-18 22:59N 01°06' E 103°37'0 0.0
2017-Sep-18 22:29N 01°06' E 103°37'0 0.0
2017-Sep-18 21:59N 01°06' E 103°37'0 0.0
2017-Sep-18 21:29N 01°06' E 103°37'0 0.0
2017-Sep-18 20:53N 01°06' E 103°37'0 0.0
2017-Sep-18 20:23N 01°06' E 103°37'0 0.1
2017-Sep-18 19:50N 01°06' E 103°37'0 0.0
2017-Sep-18 17:59N 01°06' E 103°37'0 0.0
2017-Sep-18 15:35N 01°06' E 103°37'0 0.1
2017-Sep-18 15:26N 01°06' E 103°37'0 0.2
2017-Sep-18 14:59N 01°06' E 103°37'0 0.2
2017-Sep-18 14:23N 01°06' E 103°37'0 0.1
2017-Sep-18 13:53N 01°06' E 103°37'0 0.0
2017-Sep-18 12:59N 01°06' E 103°37'0 0.1
2017-Sep-18 12:26N 01°06' E 103°37'0 0.1
2017-Sep-18 11:26N 01°06' E 103°37'0 0.0
2017-Sep-18 10:59N 01°06' E 103°37'0 0.0
2017-Sep-18 10:29N 01°06' E 103°37'0 0.0
2017-Sep-18 09:53N 01°06' E 103°37'0 0.0
2017-Sep-18 09:20N 01°06' E 103°37'0 0.2
2017-Sep-18 08:59N 01°06' E 103°37'0 0.0
2017-Sep-18 08:29N 01°06' E 103°37'0 0.0
2017-Sep-18 07:56N 01°06' E 103°37'0 0.1
2017-Sep-18 07:29N 01°06' E 103°37'0 0.1
2017-Sep-18 06:56N 01°06' E 103°37'0 0.2
2017-Sep-18 06:20N 01°06' E 103°37'0 0.2
2017-Sep-18 05:59N 01°06' E 103°37'0 0.1
2017-Sep-18 05:29N 01°06' E 103°37'0 0.1
2017-Sep-18 04:59N 01°06' E 103°37'0 0.1
2017-Sep-18 04:29N 01°06' E 103°37'0 0.0
2017-Sep-18 03:59N 01°06' E 103°37'0 0.0
2017-Sep-18 03:29N 01°06' E 103°37'0 0.0
2017-Sep-18 02:56N 01°06' E 103°37'0 0.0
2017-Sep-18 02:29N 01°06' E 103°37'0 0.0
2017-Sep-18 01:59N 01°06' E 103°37'0 0.1
2017-Sep-18 01:23N 01°06' E 103°37'0 0.0
2017-Sep-18 00:59N 01°06' E 103°37'0 0.1
2017-Sep-17 23:32N 01°06' E 103°37'0 0.1
2017-Sep-17 23:29N 01°06' E 103°37'0 0.1
2017-Sep-17 22:59N 01°06' E 103°37'0 0.0
2017-Sep-17 22:29N 01°06' E 103°37'0 0.1
2017-Sep-17 21:50N 01°06' E 103°37'0 0.0
2017-Sep-17 21:29N 01°06' E 103°37'0 0.1
2017-Sep-17 20:59N 01°06' E 103°37'0 0.1
2017-Sep-17 20:26N 01°06' E 103°37'0 0.0
2017-Sep-17 19:53N 01°06' E 103°37'0 0.1
2017-Sep-17 19:23N 01°06' E 103°37'0 0.0
2017-Sep-17 18:59N 01°06' E 103°37'0 0.0
2017-Sep-17 18:29N 01°06' E 103°37'0 0.0
2017-Sep-17 17:47N 01°06' E 103°37'0 0.0
2017-Sep-17 17:29N 01°06' E 103°37'0 0.1
2017-Sep-17 16:53N 01°06' E 103°37'0 0.0
2017-Sep-17 14:44N 01°06' E 103°37'0 0.0
2017-Sep-17 14:17N 01°06' E 103°37'0 0.1
2017-Sep-17 13:44N 01°06' E 103°37'0 0.0
2017-Sep-17 13:29N 01°06' E 103°37'0 0.1
2017-Sep-17 12:56N 01°06' E 103°37'0 0.0
2017-Sep-17 12:26N 01°06' E 103°37'0 0.1
2017-Sep-17 11:47N 01°06' E 103°37'0 0.0
2017-Sep-17 11:14N 01°06' E 103°37'0 0.0
2017-Sep-17 10:53N 01°06' E 103°37'0 0.0
2017-Sep-17 10:05N 01°06' E 103°37'0 0.0
2017-Sep-17 08:59N 01°06' E 103°37'0 0.0
2017-Sep-17 08:23N 01°06' E 103°37'0 0.0
2017-Sep-17 07:02N 01°06' E 103°37'0 0.0
2017-Sep-17 06:59N 01°06' E 103°37'0 0.1
2017-Sep-17 06:23N 01°06' E 103°37'0 0.1
2017-Sep-17 05:53N 01°06' E 103°37'0 0.1
2017-Sep-17 05:29N 01°06' E 103°37'0 0.1
2017-Sep-17 04:53N 01°06' E 103°37'0 0.1
2017-Sep-17 04:26N 01°06' E 103°37'0 0.0
2017-Sep-17 03:56N 01°06' E 103°37'0 0.0
2017-Sep-17 03:29N 01°06' E 103°37'0 0.0
2017-Sep-17 02:59N 01°06' E 103°37'0 0.0
2017-Sep-17 02:26N 01°06' E 103°37'0 0.0
2017-Sep-17 01:59N 01°06' E 103°37'0 0.0
2017-Sep-17 01:23N 01°06' E 103°37'0 0.0
2017-Sep-17 00:56N 01°06' E 103°37'0 0.0
2017-Sep-17 00:26N 01°06' E 103°37'0 0.1
2017-Sep-16 23:59N 01°06' E 103°37'0 0.2
2017-Sep-16 22:47N 01°06' E 103°37'0 0.2
2017-Sep-16 22:23N 01°06' E 103°37'0 0.0
2017-Sep-16 21:47N 01°06' E 103°37'0 0.0
2017-Sep-16 21:26N 01°06' E 103°37'0 0.0
2017-Sep-16 20:59N 01°06' E 103°37'0 0.0
2017-Sep-16 20:29N 01°06' E 103°37'0 0.0
2017-Sep-16 19:59N 01°06' E 103°37'0 0.0
2017-Sep-16 19:26N 01°06' E 103°37'0 0.0
2017-Sep-16 18:56N 01°06' E 103°37'0 0.0
2017-Sep-16 18:29N 01°06' E 103°37'0 0.0
2017-Sep-16 17:59N 01°06' E 103°37'0 0.0
2017-Sep-16 17:29N 01°06' E 103°37'0 0.0
2017-Sep-16 16:53N 01°06' E 103°37'0 0.0
2017-Sep-16 16:20N 01°06' E 103°37'0 0.1
2017-Sep-16 15:53N 01°06' E 103°37'0 0.2
2017-Sep-16 15:29N 01°06' E 103°37'0 0.0
2017-Sep-16 14:02N 01°06' E 103°37'0 0.3
2017-Sep-16 13:50N 01°06' E 103°37'0 0.0
2017-Sep-16 13:14N 01°06' E 103°37'0 0.2
2017-Sep-16 12:50N 01°06' E 103°37'0 0.2
2017-Sep-16 12:29N 01°06' E 103°37'0 0.0
2017-Sep-16 11:44N 01°06' E 103°37'0 0.0
2017-Sep-16 11:29N 01°06' E 103°37'0 0.0
2017-Sep-16 10:56N 01°06' E 103°37'0 0.0
2017-Sep-16 10:14N 01°06' E 103°37'0 0.1
2017-Sep-16 09:50N 01°06' E 103°37'0 0.0
2017-Sep-16 09:26N 01°06' E 103°37'0 0.0
2017-Sep-16 08:59N 01°06' E 103°37'0 0.1
2017-Sep-16 08:26N 01°06' E 103°37'0 0.0
2017-Sep-16 07:59N 01°06' E 103°37'0 0.1
2017-Sep-16 06:47N 01°06' E 103°37'0 0.3
2017-Sep-16 06:29N 01°06' E 103°37'0 0.2
2017-Sep-16 05:59N 01°06' E 103°37'0 0.1
2017-Sep-16 05:29N 01°06' E 103°37'0 0.1
2017-Sep-16 04:56N 01°06' E 103°37'0 0.0
2017-Sep-16 04:29N 01°06' E 103°37'0 0.0
2017-Sep-16 03:53N 01°06' E 103°37'0 0.0
2017-Sep-16 03:29N 01°06' E 103°37'0 0.1
2017-Sep-16 02:47N 01°06' E 103°37'0 0.0
2017-Sep-16 02:26N 01°06' E 103°37'0 0.0
2017-Sep-16 01:59N 01°06' E 103°37'0 0.0
2017-Sep-16 01:29N 01°06' E 103°37'0 0.0
2017-Sep-16 00:59N 01°06' E 103°37'0 0.0
2017-Sep-16 00:20N 01°06' E 103°37'0 0.0
2017-Sep-15 23:59N 01°06' E 103°37'0 0.0
2017-Sep-15 23:26N 01°06' E 103°37'0 0.1
2017-Sep-15 22:38N 01°06' E 103°37'0 0.3
2017-Sep-15 22:23N 01°06' E 103°37'0 0.1
2017-Sep-15 21:50N 01°06' E 103°37'0 0.0
2017-Sep-15 20:35N 01°06' E 103°37'0 0.0
2017-Sep-15 20:26N 01°06' E 103°37'0 0.0
2017-Sep-15 10:08N 01°06' E 103°37'0 0.1
2017-Sep-15 09:38N 01°06' E 103°37'0 0.4
2017-Sep-15 09:29N 01°06' E 103°37'0 0.0
2017-Sep-15 08:59N 01°06' E 103°37'0 0.1
2017-Sep-15 08:17N 01°06' E 103°37'0 0.0
2017-Sep-15 07:59N 01°06' E 103°37'0 0.1
2017-Sep-15 07:29N 01°06' E 103°37'0 0.0
2017-Sep-15 06:56N 01°06' E 103°37'0 0.0
2017-Sep-15 06:29N 01°06' E 103°37'0 0.1
2017-Sep-15 05:14N 01°06' E 103°37'0 0.1
2017-Sep-15 04:56N 01°06' E 103°37'0 0.2
2017-Sep-15 04:29N 01°06' E 103°37'0 0.3
2017-Sep-15 03:56N 01°06' E 103°37'0 0.1
2017-Sep-15 03:26N 01°06' E 103°37'0 0.1
2017-Sep-15 02:59N 01°06' E 103°37'0 0.1
2017-Sep-15 02:29N 01°06' E 103°37'0 0.0
2017-Sep-15 01:56N 01°06' E 103°37'0 0.0
2017-Sep-15 01:29N 01°06' E 103°37'0 0.0
2017-Sep-15 00:56N 01°06' E 103°37'0 0.0
2017-Sep-14 22:59N 01°06' E 103°37'0 0.0
2017-Sep-14 20:53N 01°06' E 103°37'0 0.0
2017-Sep-14 15:59N 01°06' E 103°37'0 0.0
2017-Sep-14 05:35N 01°06' E 103°37'0 0.0
2017-Sep-13 22:41N 01°06' E 103°37'0 0.0
2017-Sep-13 16:53N 01°06' E 103°37'0 0.1
2017-Sep-13 15:59N 01°06' E 103°37'0 0.0
2017-Sep-13 15:14N 01°06' E 103°37'0 0.0
2017-Sep-13 14:53N 01°06' E 103°37'0 0.0
2017-Sep-13 14:17N 01°06' E 103°37'0 0.0
2017-Sep-13 13:56N 01°06' E 103°37'0 0.0
2017-Sep-13 08:23N 01°06' E 103°37'0 0.0
2017-Sep-13 07:59N 01°06' E 103°37'0 0.2
2017-Sep-13 07:30N 01°06' E 103°37'0 0.1
2017-Sep-13 06:59N 01°06' E 103°37'0 0.1
2017-Sep-13 06:30N 01°06' E 103°37'0 0.0
2017-Sep-13 05:59N 01°06' E 103°37'0 0.0
2017-Sep-13 05:30N 01°06' E 103°37'0 0.1
2017-Sep-13 05:01N 01°06' E 103°37'0 0.0
2017-Sep-13 04:30N 01°06' E 103°37'0 0.0
2017-Sep-13 03:59N 01°06' E 103°37'0 0.0
2017-Sep-13 03:25N 01°06' E 103°37'0 0.0
2017-Sep-13 02:59N 01°06' E 103°37'0 0.1
2017-Sep-13 02:28N 01°06' E 103°37'0 0.1
2017-Sep-13 01:58N 01°06' E 103°37'0 0.3
2017-Sep-13 01:30N 01°06' E 103°37'0 0.2
2017-Sep-13 00:58N 01°06' E 103°37'0 0.0
2017-Sep-13 00:29N 01°06' E 103°37'0 0.0
2017-Sep-12 23:53N 01°06' E 103°37'0 0.1
2017-Sep-12 23:19N 01°06' E 103°37'0 0.4
2017-Sep-12 22:59N 01°06' E 103°37'0 0.3
2017-Sep-12 22:30N 01°06' E 103°37'0 0.1
2017-Sep-12 22:01N 01°06' E 103°37'0 0.1
2017-Sep-12 21:30N 01°06' E 103°37'0 0.0
2017-Sep-12 20:59N 01°06' E 103°37'0 0.0
2017-Sep-12 20:30N 01°06' E 103°37'0 0.0
2017-Sep-12 19:59N 01°06' E 103°37'0 0.1
2017-Sep-12 19:30N 01°06' E 103°37'0 0.3
2017-Sep-12 18:59N 01°06' E 103°37'0 0.3
2017-Sep-12 18:30N 01°06' E 103°37'0 0.0
2017-Sep-12 17:59N 01°06' E 103°37'0 0.1
2017-Sep-12 17:30N 01°06' E 103°37'0 0.0
2017-Sep-12 17:00N 01°06' E 103°37'0 0.1
2017-Sep-12 16:30N 01°06' E 103°37'0 0.0
2017-Sep-12 15:59N 01°06' E 103°37'0 0.0
2017-Sep-12 15:30N 01°06' E 103°37'0 0.0
2017-Sep-12 14:59N 01°06' E 103°37'0 0.0
2017-Sep-12 14:30N 01°06' E 103°37'0 0.0
2017-Sep-12 13:59N 01°06' E 103°37'0 0.0
2017-Sep-12 13:30N 01°06' E 103°37'0 0.1
2017-Sep-12 12:59N 01°06' E 103°37'0 0.0
2017-Sep-12 12:30N 01°06' E 103°37'0 0.0
2017-Sep-12 12:01N 01°06' E 103°37'0 0.1
2017-Sep-12 11:30N 01°06' E 103°37'0 0.0
2017-Sep-12 10:59N 01°06' E 103°37'0 0.1
2017-Sep-12 10:30N 01°06' E 103°37'0 0.1
2017-Sep-12 09:59N 01°06' E 103°37'0 0.1
2017-Sep-12 09:30N 01°06' E 103°37'0 0.0
2017-Sep-12 09:00N 01°06' E 103°37'0 0.1
2017-Sep-12 08:30N 01°06' E 103°37'0 0.0
2017-Sep-12 07:53N 01°06' E 103°37'0 0.0
2017-Sep-12 07:30N 01°06' E 103°37'0 0.0
2017-Sep-12 07:01N 01°06' E 103°37'0 0.1
2017-Sep-12 06:30N 01°06' E 103°37'0 0.2
2017-Sep-12 05:58N 01°06' E 103°37'0 0.3
2017-Sep-12 05:30N 01°06' E 103°37'0 0.1
2017-Sep-12 04:59N 01°06' E 103°37'0 0.0
2017-Sep-12 04:30N 01°06' E 103°37'0 0.0
2017-Sep-12 03:59N 01°06' E 103°37'0 0.0
2017-Sep-12 03:30N 01°06' E 103°37'0 0.0
2017-Sep-12 03:00N 01°06' E 103°37'0 0.1
2017-Sep-12 02:30N 01°06' E 103°37'0 0.0
2017-Sep-12 02:01N 01°06' E 103°37'0 0.0
2017-Sep-12 01:30N 01°06' E 103°37'0 0.0
2017-Sep-12 00:59N 01°06' E 103°37'0 0.0
2017-Sep-12 00:30N 01°06' E 103°37'0 0.0
2017-Sep-11 23:59N 01°06' E 103°37'0 0.0
2017-Sep-11 23:30N 01°06' E 103°37'0 0.1
2017-Sep-11 23:00N 01°06' E 103°37'0 0.4
2017-Sep-11 22:30N 01°06' E 103°37'0 0.2
2017-Sep-11 21:59N 01°06' E 103°37'0 0.1
2017-Sep-11 21:30N 01°06' E 103°37'0 0.1
2017-Sep-11 20:59N 01°06' E 103°37'0 0.1
2017-Sep-11 20:30N 01°06' E 103°37'0 0.1
2017-Sep-11 20:01N 01°06' E 103°37'0 0.0
2017-Sep-11 19:30N 01°06' E 103°37'0 0.0
2017-Sep-11 18:59N 01°06' E 103°37'0 0.0
2017-Sep-11 18:30N 01°06' E 103°37'0 0.1
2017-Sep-11 17:59N 01°06' E 103°37'0 0.3
2017-Sep-11 17:30N 01°06' E 103°37'0 0.3
2017-Sep-11 16:59N 01°06' E 103°37'0 0.1
2017-Sep-11 16:30N 01°06' E 103°37'0 0.0
2017-Sep-11 15:59N 01°06' E 103°37'0 0.0
2017-Sep-11 15:30N 01°06' E 103°37'0 0.1
2017-Sep-11 14:59N 01°06' E 103°37'0 0.0
2017-Sep-11 14:30N 01°06' E 103°37'0 0.0
2017-Sep-11 13:59N 01°06' E 103°37'0 0.1
2017-Sep-11 13:30N 01°06' E 103°37'0 0.0
2017-Sep-11 12:59N 01°06' E 103°37'0 0.1
2017-Sep-11 12:30N 01°06' E 103°37'0 0.0
2017-Sep-11 11:59N 01°06' E 103°37'0 0.1
2017-Sep-11 11:30N 01°06' E 103°37'  

Dump ship's entire track history